Terminal Aerodrome Forecast
Issued by NWS Charleston, WV

Home | Current Version | Previous Version | Text Only | Print | Product List | Glossary On
Versions: 1 2 3 4 5 6 7 8 9 10 11 12 13 14 15 16 17 18 19 20 21 22 23 24
000
FTUS41 KRLX 012337
TAFBKW
TAF
KBKW 012337Z 0200/0224 28004KT P6SM SHRA VCTS OVC045CB
     FM020400 25002KT P6SM VCSH BKN025
     FM020600 24003KT 2SM BR OVC008
     FM021200 VRB03KT 4SM BR OVC015
     FM021400 03003KT 4SM BR VCSH BKN020
     FM021700 01004KT 6SM BR VCTS BKN040CB=

USA.gov is the U.S. government's official web portal to all federal, state and local government web resources and services.